sensor_id;sensor_type;location;lat;lon;timestamp;P1;durP1;ratioP1;P2;durP2;ratioP2
51814;SDS011;37874;53.158;6.766;2023-02-03T00:01:45;3.78;;;0.80;;
51814;SDS011;37874;53.158;6.766;2023-02-03T00:04:10;4.10;;;0.80;;
51814;SDS011;37874;53.158;6.766;2023-02-03T00:06:36;2.65;;;0.90;;
51814;SDS011;37874;53.158;6.766;2023-02-03T00:09:02;3.97;;;0.90;;
51814;SDS011;37874;53.158;6.766;2023-02-03T00:11:28;3.17;;;0.90;;
51814;SDS011;37874;53.158;6.766;2023-02-03T00:13:54;3.42;;;0.80;;
51814;SDS011;37874;53.158;6.766;2023-02-03T00:16:20;4.97;;;1.02;;
51814;SDS011;37874;53.158;6.766;2023-02-03T00:18:45;4.70;;;0.90;;
51814;SDS011;37874;53.158;6.766;2023-02-03T00:21:11;2.75;;;0.88;;
51814;SDS011;37874;53.158;6.766;2023-02-03T00:23:39;3.47;;;0.90;;
51814;SDS011;37874;53.158;6.766;2023-02-03T00:26:09;1.95;;;0.70;;
51814;SDS011;37874;53.158;6.766;2023-02-03T00:28:36;2.15;;;0.80;;
51814;SDS011;37874;53.158;6.766;2023-02-03T00:31:02;3.20;;;0.80;;
51814;SDS011;37874;53.158;6.766;2023-02-03T00:33:28;4.22;;;0.93;;
51814;SDS011;37874;53.158;6.766;2023-02-03T00:35:54;3.35;;;1.00;;
51814;SDS011;37874;53.158;6.766;2023-02-03T00:38:19;4.55;;;1.52;;
51814;SDS011;37874;53.158;6.766;2023-02-03T00:40:51;2.70;;;0.80;;
51814;SDS011;37874;53.158;6.766;2023-02-03T00:43:18;3.72;;;1.10;;
51814;SDS011;37874;53.158;6.766;2023-02-03T00:45:44;3.40;;;0.93;;
51814;SDS011;37874;53.158;6.766;2023-02-03T00:48:09;3.20;;;0.88;;
51814;SDS011;37874;53.158;6.766;2023-02-03T00:50:35;3.47;;;1.02;;
51814;SDS011;37874;53.158;6.766;2023-02-03T00:53:01;4.22;;;1.10;;
51814;SDS011;37874;53.158;6.766;2023-02-03T00:55:26;3.75;;;1.00;;
51814;SDS011;37874;53.158;6.766;2023-02-03T00:57:52;4.22;;;0.88;;
51814;SDS011;37874;53.158;6.766;2023-02-03T01:00:18;4.10;;;0.90;;
51814;SDS011;37874;53.158;6.766;2023-02-03T01:02:44;3.85;;;1.00;;
51814;SDS011;37874;53.158;6.766;2023-02-03T01:05:10;3.10;;;1.10;;
51814;SDS011;37874;53.158;6.766;2023-02-03T01:07:35;2.10;;;0.75;;
51814;SDS011;37874;53.158;6.766;2023-02-03T01:10:02;4.32;;;0.90;;
51814;SDS011;37874;53.158;6.766;2023-02-03T01:12:29;4.82;;;1.17;;
51814;SDS011;37874;53.158;6.766;2023-02-03T01:14:55;3.15;;;1.10;;
51814;SDS011;37874;53.158;6.766;2023-02-03T01:17:21;3.85;;;1.10;;
51814;SDS011;37874;53.158;6.766;2023-02-03T01:19:46;3.53;;;0.93;;
51814;SDS011;37874;53.158;6.766;2023-02-03T01:22:12;3.53;;;0.82;;
51814;SDS011;37874;53.158;6.766;2023-02-03T01:24:38;4.03;;;0.95;;
51814;SDS011;37874;53.158;6.766;2023-02-03T01:27:03;2.65;;;1.00;;
51814;SDS011;37874;53.158;6.766;2023-02-03T01:29:30;3.88;;;1.10;;
51814;SDS011;37874;53.158;6.766;2023-02-03T01:31:55;4.85;;;1.10;;
51814;SDS011;37874;53.158;6.766;2023-02-03T01:34:21;3.22;;;1.00;;
51814;SDS011;37874;53.158;6.766;2023-02-03T01:36:47;4.15;;;0.90;;
51814;SDS011;37874;53.158;6.766;2023-02-03T01:39:13;6.38;;;1.25;;
51814;SDS011;37874;53.158;6.766;2023-02-03T01:41:39;5.25;;;1.35;;
51814;SDS011;37874;53.158;6.766;2023-02-03T01:47:02;3.90;;;1.10;;
51814;SDS011;37874;53.158;6.766;2023-02-03T01:49:34;3.83;;;1.17;;
51814;SDS011;37874;53.158;6.766;2023-02-03T01:52:01;4.70;;;1.30;;
51814;SDS011;37874;53.158;6.766;2023-02-03T01:54:29;3.13;;;0.93;;
51814;SDS011;37874;53.158;6.766;2023-02-03T01:56:59;3.63;;;1.08;;
51814;SDS011;37874;53.158;6.766;2023-02-03T01:59:28;4.07;;;1.02;;
51814;SDS011;37874;53.158;6.766;2023-02-03T02:01:55;4.35;;;1.50;;
51814;SDS011;37874;53.158;6.766;2023-02-03T02:04:23;4.38;;;1.08;;
51814;SDS011;37874;53.158;6.766;2023-02-03T02:06:54;3.72;;;1.10;;
51814;SDS011;37874;53.158;6.766;2023-02-03T02:09:21;3.47;;;1.15;;
51814;SDS011;37874;53.158;6.766;2023-02-03T02:11:47;3.55;;;1.30;;
51814;SDS011;37874;53.158;6.766;2023-02-03T02:14:13;3.67;;;1.30;;
51814;SDS011;37874;53.158;6.766;2023-02-03T02:35:11;5.63;;;1.30;;
51814;SDS011;37874;53.158;6.766;2023-02-03T02:37:52;4.78;;;1.25;;
51814;SDS011;37874;53.158;6.766;2023-02-03T02:43:07;4.30;;;1.40;;
51814;SDS011;37874;53.158;6.766;2023-02-03T02:46:01;4.15;;;1.40;;
51814;SDS011;37874;53.158;6.766;2023-02-03T02:48:52;6.40;;;1.25;;
51814;SDS011;37874;53.158;6.766;2023-02-03T02:51:23;4.00;;;1.00;;
51814;SDS011;37874;53.158;6.766;2023-02-03T02:53:58;4.40;;;1.30;;
51814;SDS011;37874;53.158;6.766;2023-02-03T02:56:28;5.72;;;1.23;;
51814;SDS011;37874;53.158;6.766;2023-02-03T02:58:57;6.10;;;1.70;;
51814;SDS011;37874;53.158;6.766;2023-02-03T03:01:25;4.25;;;1.50;;
51814;SDS011;37874;53.158;6.766;2023-02-03T03:03:51;3.72;;;1.20;;
51814;SDS011;37874;53.158;6.766;2023-02-03T03:11:36;6.18;;;1.52;;
51814;SDS011;37874;53.158;6.766;2023-02-03T03:14:12;3.90;;;1.30;;
51814;SDS011;37874;53.158;6.766;2023-02-03T03:16:43;6.10;;;1.45;;
51814;SDS011;37874;53.158;6.766;2023-02-03T03:19:18;3.58;;;1.23;;
51814;SDS011;37874;53.158;6.766;2023-02-03T03:21:54;4.80;;;1.42;;
51814;SDS011;37874;53.158;6.766;2023-02-03T03:24:27;4.68;;;1.50;;
51814;SDS011;37874;53.158;6.766;2023-02-03T03:29:42;4.65;;;1.42;;
51814;SDS011;37874;53.158;6.766;2023-02-03T03:32:21;6.95;;;1.50;;
51814;SDS011;37874;53.158;6.766;2023-02-03T03:34:47;5.03;;;1.13;;
51814;SDS011;37874;53.158;6.766;2023-02-03T03:48:04;5.45;;;1.40;;
51814;SDS011;37874;53.158;6.766;2023-02-03T03:50:40;7.80;;;1.30;;
51814;SDS011;37874;53.158;6.766;2023-02-03T03:53:09;5.43;;;1.30;;
51814;SDS011;37874;53.158;6.766;2023-02-03T03:55:37;3.85;;;1.15;;
51814;SDS011;37874;53.158;6.766;2023-02-03T03:58:06;4.68;;;1.10;;
51814;SDS011;37874;53.158;6.766;2023-02-03T04:00:38;4.07;;;1.30;;
51814;SDS011;37874;53.158;6.766;2023-02-03T04:03:13;6.32;;;1.58;;
51814;SDS011;37874;53.158;6.766;2023-02-03T04:05:41;5.53;;;1.27;;
51814;SDS011;37874;53.158;6.766;2023-02-03T04:08:07;4.45;;;1.65;;
51814;SDS011;37874;53.158;6.766;2023-02-03T04:10:34;5.57;;;1.25;;
51814;SDS011;37874;53.158;6.766;2023-02-03T04:13:01;6.00;;;1.20;;
51814;SDS011;37874;53.158;6.766;2023-02-03T04:15:28;5.65;;;1.42;;
51814;SDS011;37874;53.158;6.766;2023-02-03T04:17:55;5.68;;;1.50;;
51814;SDS011;37874;53.158;6.766;2023-02-03T04:20:21;5.55;;;1.80;;
51814;SDS011;37874;53.158;6.766;2023-02-03T04:22:47;6.50;;;1.80;;
51814;SDS011;37874;53.158;6.766;2023-02-03T04:25:13;6.80;;;1.60;;
51814;SDS011;37874;53.158;6.766;2023-02-03T04:27:38;4.55;;;1.33;;
51814;SDS011;37874;53.158;6.766;2023-02-03T04:30:04;5.00;;;1.15;;
51814;SDS011;37874;53.158;6.766;2023-02-03T04:32:30;4.05;;;1.30;;
51814;SDS011;37874;53.158;6.766;2023-02-03T04:34:57;6.28;;;1.52;;
51814;SDS011;37874;53.158;6.766;2023-02-03T04:37:23;5.65;;;1.55;;
51814;SDS011;37874;53.158;6.766;2023-02-03T04:39:50;6.10;;;1.25;;
51814;SDS011;37874;53.158;6.766;2023-02-03T04:42:17;6.18;;;1.50;;
51814;SDS011;37874;53.158;6.766;2023-02-03T04:44:43;4.75;;;1.50;;
51814;SDS011;37874;53.158;6.766;2023-02-03T04:47:09;4.28;;;1.52;;
51814;SDS011;37874;53.158;6.766;2023-02-03T04:49:34;6.45;;;1.60;;
51814;SDS011;37874;53.158;6.766;2023-02-03T04:52:00;5.90;;;1.33;;
51814;SDS011;37874;53.158;6.766;2023-02-03T04:54:25;5.95;;;1.70;;
51814;SDS011;37874;53.158;6.766;2023-02-03T04:56:51;5.40;;;1.40;;
51814;SDS011;37874;53.158;6.766;2023-02-03T04:59:16;5.55;;;1.88;;
51814;SDS011;37874;53.158;6.766;2023-02-03T05:01:42;4.05;;;1.40;;
51814;SDS011;37874;53.158;6.766;2023-02-03T05:04:08;6.53;;;1.63;;
51814;SDS011;37874;53.158;6.766;2023-02-03T05:06:33;4.90;;;1.27;;
51814;SDS011;37874;53.158;6.766;2023-02-03T05:08:59;6.60;;;1.40;;
51814;SDS011;37874;53.158;6.766;2023-02-03T05:11:25;4.70;;;1.15;;
51814;SDS011;37874;53.158;6.766;2023-02-03T05:13:51;6.95;;;1.60;;
51814;SDS011;37874;53.158;6.766;2023-02-03T05:16:17;4.63;;;1.30;;
51814;SDS011;37874;53.158;6.766;2023-02-03T05:18:43;4.68;;;1.55;;
51814;SDS011;37874;53.158;6.766;2023-02-03T05:21:08;3.72;;;1.40;;
51814;SDS011;37874;53.158;6.766;2023-02-03T05:23:34;5.65;;;1.42;;
51814;SDS011;37874;53.158;6.766;2023-02-03T05:26:00;3.88;;;1.20;;
51814;SDS011;37874;53.158;6.766;2023-02-03T05:28:25;6.78;;;1.40;;
51814;SDS011;37874;53.158;6.766;2023-02-03T05:30:51;7.20;;;1.88;;
51814;SDS011;37874;53.158;6.766;2023-02-03T05:33:17;3.70;;;1.10;;
51814;SDS011;37874;53.158;6.766;2023-02-03T05:35:42;5.05;;;1.63;;
51814;SDS011;37874;53.158;6.766;2023-02-03T05:38:08;5.00;;;1.20;;
51814;SDS011;37874;53.158;6.766;2023-02-03T05:40:33;5.63;;;1.42;;
51814;SDS011;37874;53.158;6.766;2023-02-03T05:43:18;4.93;;;1.25;;
51814;SDS011;37874;53.158;6.766;2023-02-03T05:45:43;5.40;;;1.90;;
51814;SDS011;37874;53.158;6.766;2023-02-03T05:48:09;5.72;;;1.38;;
51814;SDS011;37874;53.158;6.766;2023-02-03T05:50:35;5.35;;;1.30;;
51814;SDS011;37874;53.158;6.766;2023-02-03T05:53:02;4.68;;;1.33;;
51814;SDS011;37874;53.158;6.766;2023-02-03T05:55:30;6.95;;;1.50;;
51814;SDS011;37874;53.158;6.766;2023-02-03T05:57:56;4.50;;;1.55;;
51814;SDS011;37874;53.158;6.766;2023-02-03T06:00:24;4.95;;;1.20;;
51814;SDS011;37874;53.158;6.766;2023-02-03T06:02:57;4.88;;;1.40;;
51814;SDS011;37874;53.158;6.766;2023-02-03T06:05:24;7.43;;;2.00;;
51814;SDS011;37874;53.158;6.766;2023-02-03T06:07:50;4.97;;;1.42;;
51814;SDS011;37874;53.158;6.766;2023-02-03T06:10:17;5.38;;;1.30;;
51814;SDS011;37874;53.158;6.766;2023-02-03T06:12:43;4.35;;;1.40;;
51814;SDS011;37874;53.158;6.766;2023-02-03T06:15:09;5.25;;;1.50;;
51814;SDS011;37874;53.158;6.766;2023-02-03T06:17:35;6.20;;;1.52;;
51814;SDS011;37874;53.158;6.766;2023-02-03T06:20:05;8.27;;;1.50;;
51814;SDS011;37874;53.158;6.766;2023-02-03T06:22:32;5.18;;;1.45;;
51814;SDS011;37874;53.158;6.766;2023-02-03T06:24:58;7.90;;;1.63;;
51814;SDS011;37874;53.158;6.766;2023-02-03T06:27:24;8.20;;;1.90;;
51814;SDS011;37874;53.158;6.766;2023-02-03T06:29:49;5.05;;;1.25;;
51814;SDS011;37874;53.158;6.766;2023-02-03T06:32:15;6.00;;;1.50;;
51814;SDS011;37874;53.158;6.766;2023-02-03T06:34:41;6.18;;;1.52;;
51814;SDS011;37874;53.158;6.766;2023-02-03T06:37:06;8.27;;;1.50;;
51814;SDS011;37874;53.158;6.766;2023-02-03T06:39:32;5.55;;;1.52;;
51814;SDS011;37874;53.158;6.766;2023-02-03T06:41:58;5.95;;;1.83;;
51814;SDS011;37874;53.158;6.766;2023-02-03T06:44:24;5.82;;;1.67;;
51814;SDS011;37874;53.158;6.766;2023-02-03T06:46:49;5.82;;;1.65;;
51814;SDS011;37874;53.158;6.766;2023-02-03T06:49:15;7.97;;;1.70;;
51814;SDS011;37874;53.158;6.766;2023-02-03T06:51:41;6.80;;;1.70;;
51814;SDS011;37874;53.158;6.766;2023-02-03T06:54:09;6.60;;;1.90;;
51814;SDS011;37874;53.158;6.766;2023-02-03T06:56:35;7.25;;;1.83;;
51814;SDS011;37874;53.158;6.766;2023-02-03T06:59:01;5.72;;;1.63;;
51814;SDS011;37874;53.158;6.766;2023-02-03T07:01:29;6.93;;;1.58;;
51814;SDS011;37874;53.158;6.766;2023-02-03T07:03:55;5.28;;;1.48;;
51814;SDS011;37874;53.158;6.766;2023-02-03T07:06:26;6.93;;;1.75;;
51814;SDS011;37874;53.158;6.766;2023-02-03T07:08:55;7.25;;;1.65;;
51814;SDS011;37874;53.158;6.766;2023-02-03T07:11:21;7.20;;;1.75;;
51814;SDS011;37874;53.158;6.766;2023-02-03T07:13:46;8.95;;;1.95;;
51814;SDS011;37874;53.158;6.766;2023-02-03T07:16:12;7.85;;;1.95;;
51814;SDS011;37874;53.158;6.766;2023-02-03T07:18:38;7.55;;;1.60;;
51814;SDS011;37874;53.158;6.766;2023-02-03T07:21:04;6.90;;;2.05;;
51814;SDS011;37874;53.158;6.766;2023-02-03T07:23:31;7.53;;;1.65;;
51814;SDS011;37874;53.158;6.766;2023-02-03T07:26:04;7.30;;;1.50;;
51814;SDS011;37874;53.158;6.766;2023-02-03T07:28:31;6.32;;;1.73;;
51814;SDS011;37874;53.158;6.766;2023-02-03T07:30:57;11.05;;;2.30;;
51814;SDS011;37874;53.158;6.766;2023-02-03T07:33:23;11.13;;;1.90;;
51814;SDS011;37874;53.158;6.766;2023-02-03T07:35:52;5.85;;;1.60;;
51814;SDS011;37874;53.158;6.766;2023-02-03T07:38:18;10.02;;;1.80;;
51814;SDS011;37874;53.158;6.766;2023-02-03T07:40:44;7.63;;;1.50;;
51814;SDS011;37874;53.158;6.766;2023-02-03T07:43:09;5.50;;;1.75;;
51814;SDS011;37874;53.158;6.766;2023-02-03T07:45:35;6.40;;;1.70;;
51814;SDS011;37874;53.158;6.766;2023-02-03T07:48:00;7.47;;;1.88;;
51814;SDS011;37874;53.158;6.766;2023-02-03T07:50:26;6.20;;;1.92;;
51814;SDS011;37874;53.158;6.766;2023-02-03T07:52:52;8.48;;;2.08;;
51814;SDS011;37874;53.158;6.766;2023-02-03T07:55:17;10.13;;;1.92;;
51814;SDS011;37874;53.158;6.766;2023-02-03T07:57:43;8.02;;;2.30;;
51814;SDS011;37874;53.158;6.766;2023-02-03T08:00:13;7.40;;;2.20;;
51814;SDS011;37874;53.158;6.766;2023-02-03T08:02:41;9.07;;;2.38;;
51814;SDS011;37874;53.158;6.766;2023-02-03T08:05:07;10.55;;;2.00;;
51814;SDS011;37874;53.158;6.766;2023-02-03T08:07:33;8.68;;;2.10;;
51814;SDS011;37874;53.158;6.766;2023-02-03T08:09:59;11.27;;;2.50;;
51814;SDS011;37874;53.158;6.766;2023-02-03T08:12:24;8.35;;;1.80;;
51814;SDS011;37874;53.158;6.766;2023-02-03T08:14:50;8.35;;;2.22;;
51814;SDS011;37874;53.158;6.766;2023-02-03T08:17:16;10.00;;;2.53;;
51814;SDS011;37874;53.158;6.766;2023-02-03T08:19:41;9.40;;;2.38;;
51814;SDS011;37874;53.158;6.766;2023-02-03T08:22:07;9.40;;;2.67;;
51814;SDS011;37874;53.158;6.766;2023-02-03T08:24:32;11.90;;;2.70;;
51814;SDS011;37874;53.158;6.766;2023-02-03T08:26:59;5.70;;;1.58;;
51814;SDS011;37874;53.158;6.766;2023-02-03T08:29:28;7.20;;;1.98;;
51814;SDS011;37874;53.158;6.766;2023-02-03T08:31:54;11.07;;;2.13;;
51814;SDS011;37874;53.158;6.766;2023-02-03T08:34:22;9.55;;;2.85;;
51814;SDS011;37874;53.158;6.766;2023-02-03T08:36:48;9.32;;;2.92;;
51814;SDS011;37874;53.158;6.766;2023-02-03T08:39:14;8.63;;;2.58;;
51814;SDS011;37874;53.158;6.766;2023-02-03T08:41:39;14.80;;;3.63;;
51814;SDS011;37874;53.158;6.766;2023-02-03T08:44:05;10.57;;;3.00;;
51814;SDS011;37874;53.158;6.766;2023-02-03T08:46:31;9.25;;;2.97;;
51814;SDS011;37874;53.158;6.766;2023-02-03T08:48:57;14.13;;;4.13;;
51814;SDS011;37874;53.158;6.766;2023-02-03T08:51:22;13.88;;;3.05;;
51814;SDS011;37874;53.158;6.766;2023-02-03T08:53:48;13.18;;;3.00;;
51814;SDS011;37874;53.158;6.766;2023-02-03T08:56:14;9.68;;;3.33;;
51814;SDS011;37874;53.158;6.766;2023-02-03T08:58:39;14.30;;;2.88;;
51814;SDS011;37874;53.158;6.766;2023-02-03T09:01:09;11.80;;;3.25;;
51814;SDS011;37874;53.158;6.766;2023-02-03T09:03:36;8.52;;;2.90;;
51814;SDS011;37874;53.158;6.766;2023-02-03T09:06:02;9.18;;;3.00;;
51814;SDS011;37874;53.158;6.766;2023-02-03T09:08:29;12.43;;;2.97;;
51814;SDS011;37874;53.158;6.766;2023-02-03T09:10:55;9.98;;;3.33;;
51814;SDS011;37874;53.158;6.766;2023-02-03T09:13:21;11.32;;;3.15;;
51814;SDS011;37874;53.158;6.766;2023-02-03T09:15:46;9.85;;;2.95;;
51814;SDS011;37874;53.158;6.766;2023-02-03T09:18:12;13.93;;;3.90;;
51814;SDS011;37874;53.158;6.766;2023-02-03T09:20:38;13.85;;;3.97;;
51814;SDS011;37874;53.158;6.766;2023-02-03T09:23:04;12.63;;;2.92;;
51814;SDS011;37874;53.158;6.766;2023-02-03T09:25:30;19.58;;;4.05;;
51814;SDS011;37874;53.158;6.766;2023-02-03T09:27:57;12.68;;;3.40;;
51814;SDS011;37874;53.158;6.766;2023-02-03T09:30:25;12.93;;;4.00;;
51814;SDS011;37874;53.158;6.766;2023-02-03T09:32:53;13.90;;;3.45;;
51814;SDS011;37874;53.158;6.766;2023-02-03T09:35:20;14.40;;;4.13;;
51814;SDS011;37874;53.158;6.766;2023-02-03T09:37:46;13.77;;;3.53;;
51814;SDS011;37874;53.158;6.766;2023-02-03T09:40:17;12.68;;;3.38;;
51814;SDS011;37874;53.158;6.766;2023-02-03T09:45:33;11.93;;;3.22;;
51814;SDS011;37874;53.158;6.766;2023-02-03T09:48:01;12.70;;;3.13;;
51814;SDS011;37874;53.158;6.766;2023-02-03T09:50:49;16.13;;;3.40;;
51814;SDS011;37874;53.158;6.766;2023-02-03T09:58:58;12.50;;;3.78;;
51814;SDS011;37874;53.158;6.766;2023-02-03T10:01:27;10.23;;;3.35;;
51814;SDS011;37874;53.158;6.766;2023-02-03T10:04:31;15.10;;;3.92;;
51814;SDS011;37874;53.158;6.766;2023-02-03T10:07:14;15.25;;;4.03;;
51814;SDS011;37874;53.158;6.766;2023-02-03T10:09:56;13.48;;;3.45;;
51814;SDS011;37874;53.158;6.766;2023-02-03T10:12:35;10.52;;;2.75;;
51814;SDS011;37874;53.158;6.766;2023-02-03T10:15:18;12.70;;;3.22;;
51814;SDS011;37874;53.158;6.766;2023-02-03T10:17:53;12.27;;;3.40;;
51814;SDS011;37874;53.158;6.766;2023-02-03T10:20:34;12.98;;;3.53;;
51814;SDS011;37874;53.158;6.766;2023-02-03T10:23:06;16.67;;;3.58;;
51814;SDS011;37874;53.158;6.766;2023-02-03T10:25:48;14.45;;;4.63;;
51814;SDS011;37874;53.158;6.766;2023-02-03T10:28:20;13.13;;;3.20;;
51814;SDS011;37874;53.158;6.766;2023-02-03T10:30:58;12.40;;;3.70;;
51814;SDS011;37874;53.158;6.766;2023-02-03T10:33:30;15.75;;;4.00;;
51814;SDS011;37874;53.158;6.766;2023-02-03T10:41:14;11.10;;;3.50;;
51814;SDS011;37874;53.158;6.766;2023-02-03T10:43:41;10.20;;;3.30;;
51814;SDS011;37874;53.158;6.766;2023-02-03T10:46:28;12.82;;;3.45;;
51814;SDS011;37874;53.158;6.766;2023-02-03T10:48:56;13.57;;;3.20;;
51814;SDS011;37874;53.158;6.766;2023-02-03T10:51:26;12.50;;;3.97;;
51814;SDS011;37874;53.158;6.766;2023-02-03T10:53:57;11.43;;;3.30;;
51814;SDS011;37874;53.158;6.766;2023-02-03T10:56:25;13.15;;;3.10;;
51814;SDS011;37874;53.158;6.766;2023-02-03T10:58:55;15.00;;;4.07;;
51814;SDS011;37874;53.158;6.766;2023-02-03T11:01:42;15.95;;;3.85;;
51814;SDS011;37874;53.158;6.766;2023-02-03T11:04:30;14.45;;;3.40;;
51814;SDS011;37874;53.158;6.766;2023-02-03T11:06:58;10.55;;;3.00;;
51814;SDS011;37874;53.158;6.766;2023-02-03T11:09:39;15.40;;;3.70;;
51814;SDS011;37874;53.158;6.766;2023-02-03T11:14:38;16.13;;;4.30;;
51814;SDS011;37874;53.158;6.766;2023-02-03T11:17:06;11.02;;;3.13;;
51814;SDS011;37874;53.158;6.766;2023-02-03T11:19:35;10.23;;;3.28;;
51814;SDS011;37874;53.158;6.766;2023-02-03T11:22:03;11.75;;;3.20;;
51814;SDS011;37874;53.158;6.766;2023-02-03T11:24:36;15.02;;;3.45;;
51814;SDS011;37874;53.158;6.766;2023-02-03T11:27:25;11.48;;;3.30;;
51814;SDS011;37874;53.158;6.766;2023-02-03T11:30:05;11.75;;;3.38;;
51814;SDS011;37874;53.158;6.766;2023-02-03T11:32:45;15.20;;;3.75;;
51814;SDS011;37874;53.158;6.766;2023-02-03T11:35:16;13.02;;;3.20;;
51814;SDS011;37874;53.158;6.766;2023-02-03T11:42:40;13.60;;;3.30;;
51814;SDS011;37874;53.158;6.766;2023-02-03T11:47:52;16.35;;;3.47;;
51814;SDS011;37874;53.158;6.766;2023-02-03T11:50:38;13.20;;;3.22;;
51814;SDS011;37874;53.158;6.766;2023-02-03T11:56:41;11.80;;;3.20;;
51814;SDS011;37874;53.158;6.766;2023-02-03T11:59:37;13.68;;;3.60;;
51814;SDS011;37874;53.158;6.766;2023-02-03T12:05:08;11.75;;;3.30;;
51814;SDS011;37874;53.158;6.766;2023-02-03T12:13:31;11.00;;;3.10;;
51814;SDS011;37874;53.158;6.766;2023-02-03T12:18:47;9.68;;;3.10;;
51814;SDS011;37874;53.158;6.766;2023-02-03T12:21:29;13.80;;;3.45;;
51814;SDS011;37874;53.158;6.766;2023-02-03T12:24:08;14.57;;;3.70;;
51814;SDS011;37874;53.158;6.766;2023-02-03T12:26:54;12.35;;;2.92;;
51814;SDS011;37874;53.158;6.766;2023-02-03T12:29:41;12.43;;;3.45;;
51814;SDS011;37874;53.158;6.766;2023-02-03T12:32:24;10.48;;;3.25;;
51814;SDS011;37874;53.158;6.766;2023-02-03T12:35:15;13.90;;;3.47;;
51814;SDS011;37874;53.158;6.766;2023-02-03T12:37:53;13.48;;;3.65;;
51814;SDS011;37874;53.158;6.766;2023-02-03T12:46:06;11.05;;;2.90;;
51814;SDS011;37874;53.158;6.766;2023-02-03T12:48:41;14.30;;;3.53;;
51814;SDS011;37874;53.158;6.766;2023-02-03T12:52:13;10.48;;;2.90;;
51814;SDS011;37874;53.158;6.766;2023-02-03T12:56:56;12.15;;;3.20;;
51814;SDS011;37874;53.158;6.766;2023-02-03T12:59:28;13.13;;;3.40;;
51814;SDS011;37874;53.158;6.766;2023-02-03T13:01:59;13.88;;;3.50;;
51814;SDS011;37874;53.158;6.766;2023-02-03T13:09:50;15.05;;;3.78;;
51814;SDS011;37874;53.158;6.766;2023-02-03T13:12:30;16.23;;;3.60;;
51814;SDS011;37874;53.158;6.766;2023-02-03T13:20:32;12.90;;;3.45;;
51814;SDS011;37874;53.158;6.766;2023-02-03T13:23:03;11.23;;;3.42;;
51814;SDS011;37874;53.158;6.766;2023-02-03T13:33:56;14.32;;;3.78;;
51814;SDS011;37874;53.158;6.766;2023-02-03T13:42:37;13.35;;;2.88;;
51814;SDS011;37874;53.158;6.766;2023-02-03T13:47:50;13.20;;;3.20;;
51814;SDS011;37874;53.158;6.766;2023-02-03T13:50:20;12.02;;;3.08;;
51814;SDS011;37874;53.158;6.766;2023-02-03T13:53:01;11.50;;;3.20;;
51814;SDS011;37874;53.158;6.766;2023-02-03T13:55:34;15.85;;;3.80;;
51814;SDS011;37874;53.158;6.766;2023-02-03T13:58:02;11.55;;;3.58;;
51814;SDS011;37874;53.158;6.766;2023-02-03T14:03:16;11.95;;;2.92;;
51814;SDS011;37874;53.158;6.766;2023-02-03T14:05:45;14.77;;;4.07;;
51814;SDS011;37874;53.158;6.766;2023-02-03T14:16:48;11.90;;;3.10;;
51814;SDS011;37874;53.158;6.766;2023-02-03T14:21:53;15.43;;;3.75;;
51814;SDS011;37874;53.158;6.766;2023-02-03T14:24:19;12.27;;;3.53;;
51814;SDS011;37874;53.158;6.766;2023-02-03T14:26:47;13.68;;;3.95;;
51814;SDS011;37874;53.158;6.766;2023-02-03T14:29:26;16.60;;;4.43;;
51814;SDS011;37874;53.158;6.766;2023-02-03T14:31:55;13.82;;;3.50;;
51814;SDS011;37874;53.158;6.766;2023-02-03T14:34:48;12.32;;;3.40;;
51814;SDS011;37874;53.158;6.766;2023-02-03T14:39:51;14.93;;;3.55;;
51814;SDS011;37874;53.158;6.766;2023-02-03T14:54:05;12.70;;;3.08;;
51814;SDS011;37874;53.158;6.766;2023-02-03T14:56:48;10.07;;;2.70;;
51814;SDS011;37874;53.158;6.766;2023-02-03T14:59:40;14.65;;;3.75;;
51814;SDS011;37874;53.158;6.766;2023-02-03T15:02:11;8.48;;;2.67;;
51814;SDS011;37874;53.158;6.766;2023-02-03T15:12:48;15.20;;;3.53;;
51814;SDS011;37874;53.158;6.766;2023-02-03T15:15:25;13.07;;;3.03;;
51814;SDS011;37874;53.158;6.766;2023-02-03T15:17:55;13.30;;;3.08;;
51814;SDS011;37874;53.158;6.766;2023-02-03T15:20:31;14.95;;;3.63;;
51814;SDS011;37874;53.158;6.766;2023-02-03T15:23:25;13.52;;;3.67;;
51814;SDS011;37874;53.158;6.766;2023-02-03T15:26:19;12.32;;;3.05;;
51814;SDS011;37874;53.158;6.766;2023-02-03T15:31:32;12.30;;;2.95;;
51814;SDS011;37874;53.158;6.766;2023-02-03T15:34:15;14.20;;;3.08;;
51814;SDS011;37874;53.158;6.766;2023-02-03T15:36:47;9.85;;;3.00;;
51814;SDS011;37874;53.158;6.766;2023-02-03T15:39:59;9.57;;;2.58;;
51814;SDS011;37874;53.158;6.766;2023-02-03T15:42:15;9.88;;;2.90;;
51814;SDS011;37874;53.158;6.766;2023-02-03T15:44:57;14.48;;;3.45;;
51814;SDS011;37874;53.158;6.766;2023-02-03T15:47:35;9.48;;;3.10;;
51814;SDS011;37874;53.158;6.766;2023-02-03T15:50:27;9.70;;;3.00;;
51814;SDS011;37874;53.158;6.766;2023-02-03T15:52:57;10.02;;;2.85;;
51814;SDS011;37874;53.158;6.766;2023-02-03T15:55:37;10.25;;;2.72;;
51814;SDS011;37874;53.158;6.766;2023-02-03T15:58:18;10.27;;;2.92;;
51814;SDS011;37874;53.158;6.766;2023-02-03T16:00:48;11.70;;;3.35;;
51814;SDS011;37874;53.158;6.766;2023-02-03T16:03:17;10.55;;;3.15;;
51814;SDS011;37874;53.158;6.766;2023-02-03T16:05:46;8.20;;;2.35;;
51814;SDS011;37874;53.158;6.766;2023-02-03T16:08:26;10.07;;;2.85;;
51814;SDS011;37874;53.158;6.766;2023-02-03T16:13:26;12.00;;;2.80;;
51814;SDS011;37874;53.158;6.766;2023-02-03T16:15:59;11.80;;;3.08;;
51814;SDS011;37874;53.158;6.766;2023-02-03T16:18:39;7.82;;;2.50;;
51814;SDS011;37874;53.158;6.766;2023-02-03T16:21:05;8.15;;;2.55;;
51814;SDS011;37874;53.158;6.766;2023-02-03T16:23:49;12.25;;;2.97;;
51814;SDS011;37874;53.158;6.766;2023-02-03T16:26:18;9.93;;;3.13;;
51814;SDS011;37874;53.158;6.766;2023-02-03T16:28:56;9.75;;;2.83;;
51814;SDS011;37874;53.158;6.766;2023-02-03T16:31:50;12.32;;;2.97;;
51814;SDS011;37874;53.158;6.766;2023-02-03T16:34:34;10.50;;;3.10;;
51814;SDS011;37874;53.158;6.766;2023-02-03T16:40:08;12.98;;;3.13;;
51814;SDS011;37874;53.158;6.766;2023-02-03T16:42:53;9.45;;;2.70;;
51814;SDS011;37874;53.158;6.766;2023-02-03T16:45:37;15.30;;;3.38;;
51814;SDS011;37874;53.158;6.766;2023-02-03T16:48:21;9.60;;;3.10;;
51814;SDS011;37874;53.158;6.766;2023-02-03T16:51:14;10.10;;;3.13;;
51814;SDS011;37874;53.158;6.766;2023-02-03T16:53:42;13.07;;;2.88;;
51814;SDS011;37874;53.158;6.766;2023-02-03T16:56:09;12.43;;;2.95;;
51814;SDS011;37874;53.158;6.766;2023-02-03T16:58:36;11.13;;;2.95;;
51814;SDS011;37874;53.158;6.766;2023-02-03T17:01:02;9.20;;;2.53;;
51814;SDS011;37874;53.158;6.766;2023-02-03T17:03:30;10.70;;;2.83;;
51814;SDS011;37874;53.158;6.766;2023-02-03T17:06:00;8.52;;;2.65;;
51814;SDS011;37874;53.158;6.766;2023-02-03T17:08:31;12.25;;;3.35;;
51814;SDS011;37874;53.158;6.766;2023-02-03T17:11:08;10.68;;;2.90;;
51814;SDS011;37874;53.158;6.766;2023-02-03T17:13:39;10.15;;;2.83;;
51814;SDS011;37874;53.158;6.766;2023-02-03T17:16:16;12.65;;;3.20;;
51814;SDS011;37874;53.158;6.766;2023-02-03T17:18:44;11.15;;;2.55;;
51814;SDS011;37874;53.158;6.766;2023-02-03T17:21:12;12.20;;;2.85;;
51814;SDS011;37874;53.158;6.766;2023-02-03T17:23:40;8.30;;;2.40;;
51814;SDS011;37874;53.158;6.766;2023-02-03T17:26:06;8.52;;;2.50;;
51814;SDS011;37874;53.158;6.766;2023-02-03T17:28:32;8.75;;;2.42;;
51814;SDS011;37874;53.158;6.766;2023-02-03T17:30:59;12.80;;;3.20;;
51814;SDS011;37874;53.158;6.766;2023-02-03T17:33:26;9.45;;;2.53;;
51814;SDS011;37874;53.158;6.766;2023-02-03T17:38:24;10.93;;;2.90;;
51814;SDS011;37874;53.158;6.766;2023-02-03T17:40:50;8.63;;;2.40;;
51814;SDS011;37874;53.158;6.766;2023-02-03T17:43:15;10.82;;;2.78;;
51814;SDS011;37874;53.158;6.766;2023-02-03T17:45:43;12.20;;;3.00;;
51814;SDS011;37874;53.158;6.766;2023-02-03T17:48:08;10.45;;;3.03;;